CheckWX is a tool to help pilots better visualize weather data.  It is not intended as a substitute for an official pre-flight weather briefing.

13:33:27 UTC

KITH METAR
Ithaca Tompkins Regional Airport
Ithaca, New York, USA
Current

37 mins ago

KITH 251256Z 00000KT 10SM CLR 15/13 A3035 RMK AO2 SLP275 T01500128
Observed
Aug-25 @ 12:56 UTC
Visibility
10 SM
Flight Rules
VFR
Cloud Levels
  • Clear skies
Temperature
15°C / 59°F
Dewpoint
13°C / 55°F
Humidity
88%
Altimeter
30.35" Hg
Pressure
1027.82 hPa
Previous

2 hours ago

KITH 251156Z 00000KT 10SM SCT050 12/11 A3034 RMK AO2 SLP276 T01170111 10117 20089 53016
Observed
Aug-25 @ 11:56 UTC
Visibility
10 SM
Flight Rules
VFR
Cloud Levels
  • Scattered at 5,000' AGL
Temperature
12°C / 54°F
Dewpoint
11°C / 52°F
Humidity
94%
Altimeter
30.34" Hg
Pressure
1027.42 hPa
Previous

3 hours ago

KITH 251056Z 00000KT 10SM FEW070 09/09 A3033 RMK AO2 SLP270 T00940094
Observed
Aug-25 @ 10:56 UTC
Visibility
10 SM
Flight Rules
VFR
Cloud Levels
  • Few at 7,000' AGL
Temperature
C / 48°F
Dewpoint
C / 48°F
Humidity
100%
Altimeter
30.33" Hg
Pressure
1027.12 hPa